createdAt,value
2018-09-17T00:01:13.079Z,13.46
2018-09-17T00:03:39.985Z,13.48
2018-09-17T00:06:06.887Z,13.47
2018-09-17T00:08:33.780Z,13.46
2018-09-17T00:11:00.645Z,13.42
2018-09-17T00:13:27.544Z,13.38
2018-09-17T00:15:54.429Z,13.37
2018-09-17T00:18:21.357Z,13.42
2018-09-17T00:20:48.245Z,13.47
2018-09-17T00:23:15.121Z,13.43
2018-09-17T00:25:42.032Z,13.42
2018-09-17T00:28:08.904Z,13.45
2018-09-17T00:30:42.684Z,13.42
2018-09-17T00:33:09.592Z,13.41
2018-09-17T00:35:36.520Z,13.38
2018-09-17T00:38:03.425Z,13.38
2018-09-17T00:40:30.336Z,13.33
2018-09-17T00:42:57.243Z,13.33
2018-09-17T00:45:24.193Z,13.29
2018-09-17T00:47:51.209Z,13.26
2018-09-17T00:50:18.148Z,13.20
2018-09-17T00:52:45.053Z,13.08
2018-09-17T00:55:11.971Z,13.01
2018-09-17T00:57:38.873Z,13.02
2018-09-17T01:00:05.812Z,13.02
2018-09-17T01:02:32.733Z,13.00
2018-09-17T01:04:59.666Z,12.90
2018-09-17T01:07:26.586Z,12.87
2018-09-17T01:09:53.491Z,12.85
2018-09-17T01:12:20.401Z,12.83
2018-09-17T01:14:47.339Z,12.76
2018-09-17T01:17:14.262Z,12.71
2018-09-17T01:19:41.186Z,12.69
2018-09-17T01:22:08.161Z,12.72
2018-09-17T01:24:35.088Z,12.71
2018-09-17T01:27:02.048Z,12.74
2018-09-17T01:29:28.976Z,12.80
2018-09-17T01:31:56.009Z,12.81
2018-09-17T01:34:23.004Z,12.81
2018-09-17T01:36:49.916Z,12.80
2018-09-17T01:39:16.844Z,12.85
2018-09-17T01:41:43.780Z,12.87
2018-09-17T01:44:10.699Z,12.83
2018-09-17T01:46:37.652Z,12.85
2018-09-17T01:49:04.795Z,12.85
2018-09-17T01:51:31.720Z,12.85
2018-09-17T01:53:58.624Z,12.88
2018-09-17T01:56:25.559Z,12.89
2018-09-17T01:58:52.464Z,12.93
2018-09-17T02:01:19.376Z,12.98
2018-09-17T02:03:46.300Z,12.99
2018-09-17T02:06:13.226Z,12.95
2018-09-17T02:08:40.210Z,12.95
2018-09-17T02:11:07.080Z,12.96
2018-09-17T02:13:34.188Z,13.02
2018-09-17T02:16:01.097Z,12.96
2018-09-17T02:18:28.012Z,12.96
2018-09-17T02:20:54.923Z,12.92
2018-09-17T02:23:21.859Z,12.96
2018-09-17T02:25:48.772Z,12.93
2018-09-17T02:28:15.680Z,12.91
2018-09-17T02:30:42.836Z,12.85
2018-09-17T02:33:09.729Z,12.81
2018-09-17T02:35:36.623Z,12.73
2018-09-17T02:38:03.526Z,12.71
2018-09-17T02:40:30.447Z,12.65
2018-09-17T02:42:57.352Z,12.61
2018-09-17T02:45:24.245Z,12.55
2018-09-17T02:47:51.146Z,12.51
2018-09-17T02:50:18.047Z,12.47
2018-09-17T02:52:44.931Z,12.41
2018-09-17T02:55:11.830Z,12.39
2018-09-17T02:57:38.762Z,12.36
2018-09-17T03:00:07.072Z,12.35
2018-09-17T03:02:33.969Z,12.38
2018-09-17T03:05:00.847Z,12.37
2018-09-17T03:07:27.772Z,12.33
2018-09-17T03:09:54.641Z,12.30
2018-09-17T03:12:21.536Z,12.24
2018-09-17T03:14:48.448Z,12.18
2018-09-17T03:17:15.457Z,12.12
2018-09-17T03:19:43.381Z,12.10
2018-09-17T03:22:11.036Z,12.08
2018-09-17T03:24:38.097Z,12.01
2018-09-17T03:27:06.043Z,11.97
2018-09-17T03:29:32.936Z,11.88
2018-09-17T03:31:59.826Z,11.87
2018-09-17T03:34:27.086Z,11.87
2018-09-17T03:36:53.982Z,11.82
2018-09-17T03:39:20.896Z,11.75
2018-09-17T03:41:47.835Z,11.75
2018-09-17T03:44:14.729Z,11.73
2018-09-17T03:46:41.653Z,11.70
2018-09-17T03:49:08.513Z,11.71
2018-09-17T03:51:35.412Z,11.69
2018-09-17T03:54:02.304Z,11.63
2018-09-17T03:56:29.203Z,11.55
2018-09-17T03:58:56.082Z,11.55
2018-09-17T04:01:23.006Z,11.53
2018-09-17T04:03:49.931Z,11.50
2018-09-17T04:06:16.845Z,11.47
2018-09-17T04:08:43.740Z,11.47
2018-09-17T04:11:10.652Z,11.49
2018-09-17T04:13:37.562Z,11.50
2018-09-17T04:16:04.483Z,11.53
2018-09-17T04:18:31.381Z,11.58
2018-09-17T04:20:58.274Z,11.57
2018-09-17T04:23:30.749Z,11.60
2018-09-17T04:25:57.671Z,11.66
2018-09-17T04:28:24.569Z,11.60
2018-09-17T04:30:51.472Z,11.63
2018-09-17T04:33:18.397Z,11.68
2018-09-17T04:35:45.349Z,11.69
2018-09-17T04:38:12.258Z,11.66
2018-09-17T04:40:39.152Z,11.64
2018-09-17T04:43:06.053Z,11.63
2018-09-17T04:45:32.941Z,11.65
2018-09-17T04:47:59.852Z,11.62
2018-09-17T04:50:26.741Z,11.60
2018-09-17T04:52:53.629Z,11.56
2018-09-17T04:55:20.517Z,11.57
2018-09-17T04:57:47.429Z,11.56
2018-09-17T05:00:14.328Z,11.55
2018-09-17T05:02:41.232Z,11.51
2018-09-17T05:05:08.132Z,11.56
2018-09-17T05:07:35.046Z,11.62
2018-09-17T05:10:01.953Z,11.66
2018-09-17T05:12:28.856Z,11.63
2018-09-17T05:14:55.752Z,11.63
2018-09-17T05:17:22.647Z,11.68
2018-09-17T05:19:49.540Z,11.69
2018-09-17T05:22:16.432Z,11.71
2018-09-17T05:24:43.320Z,11.74
2018-09-17T05:27:10.267Z,11.73
2018-09-17T05:29:37.169Z,11.78
2018-09-17T05:32:04.072Z,11.79
2018-09-17T05:34:30.963Z,11.84
2018-09-17T05:36:57.852Z,11.86
2018-09-17T05:39:24.758Z,11.88
2018-09-17T05:41:51.655Z,11.91
2018-09-17T05:44:18.607Z,11.95
2018-09-17T05:46:45.487Z,11.99
2018-09-17T05:49:12.384Z,11.96
2018-09-17T05:51:39.293Z,12.02
2018-09-17T05:54:06.233Z,12.08
2018-09-17T05:56:33.141Z,12.08
2018-09-17T05:59:00.061Z,12.13
2018-09-17T06:01:26.984Z,12.17
2018-09-17T06:03:54.546Z,12.23
2018-09-17T06:06:21.437Z,12.28
2018-09-17T06:08:48.317Z,12.32
2018-09-17T06:11:15.246Z,12.31
2018-09-17T06:13:42.164Z,12.40
2018-09-17T06:16:09.045Z,12.43
2018-09-17T06:18:36.019Z,12.47
2018-09-17T06:21:03.265Z,12.52
2018-09-17T06:23:30.256Z,12.57
2018-09-17T06:25:57.157Z,12.65
2018-09-17T06:28:24.047Z,12.72
2018-09-17T06:30:50.960Z,12.83
2018-09-17T06:33:17.912Z,12.88
2018-09-17T06:35:44.794Z,12.96
2018-09-17T06:38:11.689Z,13.03
2018-09-17T06:40:38.577Z,13.07
2018-09-17T06:43:05.514Z,13.08
2018-09-17T06:45:32.421Z,13.08
2018-09-17T06:47:59.308Z,13.07
2018-09-17T06:50:26.222Z,13.12
2018-09-17T06:52:53.124Z,13.20
2018-09-17T06:55:20.029Z,13.28
2018-09-17T06:57:46.911Z,13.40
2018-09-17T07:00:13.816Z,13.58
2018-09-17T07:02:40.716Z,13.78
2018-09-17T07:05:07.648Z,13.96
2018-09-17T07:07:34.532Z,14.06
2018-09-17T07:10:01.430Z,14.06
2018-09-17T07:12:28.324Z,14.09
2018-09-17T07:14:55.228Z,14.12
2018-09-17T07:17:22.116Z,14.17
2018-09-17T07:19:49.015Z,14.20
2018-09-17T07:22:15.912Z,14.28
2018-09-17T07:24:42.826Z,14.42
2018-09-17T07:27:09.719Z,14.54
2018-09-17T07:29:36.674Z,14.65
2018-09-17T07:32:03.595Z,14.70
2018-09-17T07:34:30.495Z,14.84
2018-09-17T07:36:57.380Z,14.91
2018-09-17T07:39:24.280Z,15.07
2018-09-17T07:41:51.164Z,15.32
2018-09-17T07:44:18.065Z,15.57
2018-09-17T07:46:44.957Z,15.84
2018-09-17T07:49:11.869Z,16.15
2018-09-17T07:51:38.773Z,16.53
2018-09-17T07:54:05.681Z,16.66
2018-09-17T07:56:32.576Z,17.01
2018-09-17T07:58:59.554Z,16.62
2018-09-17T08:01:26.403Z,16.43
2018-09-17T08:03:53.324Z,16.54
2018-09-17T08:06:20.209Z,16.87
2018-09-17T08:08:47.089Z,17.08
2018-09-17T08:11:13.984Z,17.24
2018-09-17T08:13:40.871Z,17.38
2018-09-17T08:16:07.772Z,17.58
2018-09-17T08:18:34.644Z,17.67
2018-09-17T08:21:01.557Z,17.98
2018-09-17T08:23:28.448Z,18.03
2018-09-17T08:25:55.367Z,18.22
2018-09-17T08:28:22.316Z,18.51
2018-09-17T08:30:49.227Z,18.74
2018-09-17T08:33:16.112Z,18.84
2018-09-17T08:35:43.008Z,18.99
2018-09-17T08:38:09.938Z,19.01
2018-09-17T08:40:36.815Z,19.00
2018-09-17T08:43:03.701Z,19.19
2018-09-17T08:45:30.608Z,19.18
2018-09-17T08:47:57.489Z,19.17
2018-09-17T08:50:24.393Z,19.22
2018-09-17T08:52:51.343Z,19.26
2018-09-17T08:55:23.849Z,19.31
2018-09-17T08:57:55.694Z,19.44
2018-09-17T09:00:27.183Z,19.27
2018-09-17T09:02:59.864Z,19.04
2018-09-17T09:05:32.615Z,19.44
2018-09-17T09:07:59.504Z,19.57
2018-09-17T09:10:32.025Z,19.53
2018-09-17T09:13:04.721Z,19.63
2018-09-17T09:15:37.368Z,19.67
2018-09-17T09:18:05.323Z,20.02
2018-09-17T09:20:32.478Z,20.18
2018-09-17T09:22:59.355Z,20.44
2018-09-17T09:25:26.274Z,20.60
2018-09-17T09:27:53.181Z,20.79
2018-09-17T09:30:20.209Z,20.66
2018-09-17T09:32:47.105Z,20.61
2018-09-17T09:35:13.992Z,20.57
2018-09-17T09:37:40.912Z,20.61
2018-09-17T09:40:07.799Z,20.64
2018-09-17T09:42:34.684Z,20.84
2018-09-17T09:45:01.584Z,20.76
2018-09-17T09:47:28.481Z,21.15
2018-09-17T09:49:55.358Z,21.31
2018-09-17T09:52:22.245Z,21.44
2018-09-17T09:54:49.122Z,21.48
2018-09-17T09:57:16.012Z,21.39
2018-09-17T09:59:42.928Z,21.33
2018-09-17T10:02:15.591Z,21.11
2018-09-17T10:04:42.479Z,21.07
2018-09-17T10:07:09.375Z,21.18
2018-09-17T10:09:42.108Z,21.13
2018-09-17T10:12:14.756Z,21.07
2018-09-17T10:14:47.552Z,20.97
2018-09-17T10:17:20.194Z,21.02
2018-09-17T10:19:48.812Z,21.04
2018-09-17T10:22:16.056Z,20.94
2018-09-17T10:24:42.948Z,20.88
2018-09-17T10:27:09.855Z,21.06
2018-09-17T10:29:36.743Z,21.61
2018-09-17T10:32:03.636Z,22.01
2018-09-17T10:34:30.508Z,22.28
2018-09-17T10:36:57.443Z,22.13
2018-09-17T10:39:24.331Z,22.05
2018-09-17T10:41:51.244Z,22.07
2018-09-17T10:44:18.120Z,21.98
2018-09-17T10:46:45.009Z,21.89
2018-09-17T10:49:11.895Z,21.95
2018-09-17T10:51:38.787Z,21.98
2018-09-17T10:54:05.732Z,22.18
2018-09-17T10:56:32.613Z,22.27
2018-09-17T10:58:59.514Z,22.37
2018-09-17T11:01:26.411Z,22.17
2018-09-17T11:03:53.316Z,22.29
2018-09-17T11:06:20.205Z,22.61
2018-09-17T11:08:47.152Z,22.73
2018-09-17T11:11:14.013Z,22.95
2018-09-17T11:13:40.916Z,22.75
2018-09-17T11:16:07.799Z,22.62
2018-09-17T11:18:34.695Z,22.52
2018-09-17T11:21:01.589Z,22.49
2018-09-17T11:23:28.484Z,22.35
2018-09-17T11:25:55.377Z,22.41
2018-09-17T11:28:22.276Z,22.52
2018-09-17T11:30:49.181Z,22.70
2018-09-17T11:33:16.076Z,22.90
2018-09-17T11:35:42.984Z,22.89
2018-09-17T11:38:10.175Z,22.96
2018-09-17T11:40:37.057Z,23.09
2018-09-17T11:43:03.959Z,22.93
2018-09-17T11:45:30.844Z,23.01
2018-09-17T11:47:57.728Z,23.05
2018-09-17T11:50:24.622Z,23.10
2018-09-17T11:52:51.527Z,22.97
2018-09-17T11:55:18.495Z,22.86
2018-09-17T11:57:45.391Z,22.96
2018-09-17T12:00:16.891Z,23.02
2018-09-17T12:02:49.628Z,23.01
2018-09-17T12:05:22.274Z,22.81
2018-09-17T12:07:49.181Z,22.86
2018-09-17T12:10:16.127Z,22.98
2018-09-17T12:12:42.971Z,23.31
2018-09-17T12:15:09.951Z,23.33
2018-09-17T12:17:36.799Z,23.49
2018-09-17T12:20:03.688Z,23.51
2018-09-17T12:22:30.568Z,23.84
2018-09-17T12:24:57.472Z,23.63
2018-09-17T12:27:24.360Z,23.22
2018-09-17T12:29:51.295Z,23.34
2018-09-17T12:32:18.182Z,23.47
2018-09-17T12:34:45.080Z,23.75
2018-09-17T12:37:11.971Z,23.52
2018-09-17T12:39:38.876Z,23.49
2018-09-17T12:42:06.072Z,23.65
2018-09-17T12:44:32.989Z,23.71
2018-09-17T12:46:59.891Z,23.58
2018-09-17T12:49:26.788Z,23.60
2018-09-17T12:51:53.668Z,23.71
2018-09-17T12:54:20.594Z,23.57
2018-09-17T12:56:47.508Z,23.38
2018-09-17T12:59:14.436Z,23.36
2018-09-17T13:01:41.318Z,23.47
2018-09-17T13:04:08.220Z,23.63
2018-09-17T13:06:35.113Z,23.83
2018-09-17T13:09:02.020Z,23.63
2018-09-17T13:11:28.908Z,23.50
2018-09-17T13:13:55.816Z,23.50
2018-09-17T13:16:22.721Z,23.72
2018-09-17T13:18:49.604Z,23.83
2018-09-17T13:21:16.492Z,23.75
2018-09-17T13:23:43.395Z,23.68
2018-09-17T13:26:10.280Z,23.51
2018-09-17T13:28:37.151Z,23.55
2018-09-17T13:31:04.065Z,23.56
2018-09-17T13:33:30.952Z,23.52
2018-09-17T13:35:57.852Z,23.50
2018-09-17T13:38:24.749Z,23.63
2018-09-17T13:40:51.632Z,23.66
2018-09-17T13:43:18.558Z,23.46
2018-09-17T13:45:45.448Z,23.51
2018-09-17T13:48:12.332Z,23.38
2018-09-17T13:50:39.239Z,23.24
2018-09-17T13:53:06.153Z,23.22
2018-09-17T13:55:33.039Z,23.13
2018-09-17T13:57:59.918Z,23.05
2018-09-17T14:00:26.811Z,23.02
2018-09-17T14:02:53.835Z,22.96
2018-09-17T14:05:20.740Z,23.01
2018-09-17T14:07:47.632Z,22.99
2018-09-17T14:10:14.568Z,22.97
2018-09-17T14:12:41.423Z,22.87
2018-09-17T14:15:08.341Z,22.83
2018-09-17T14:17:35.225Z,22.78
2018-09-17T14:20:02.208Z,22.90
2018-09-17T14:22:29.094Z,22.68
2018-09-17T14:24:56.032Z,22.58
2018-09-17T14:27:22.965Z,22.58
2018-09-17T14:29:49.857Z,22.45
2018-09-17T14:32:22.689Z,22.35
2018-09-17T14:34:49.576Z,22.47
2018-09-17T14:37:16.464Z,22.45
2018-09-17T14:39:43.378Z,22.38
2018-09-17T14:42:10.295Z,22.48
2018-09-17T14:44:37.222Z,22.41
2018-09-17T14:47:04.100Z,22.28
2018-09-17T14:49:31.404Z,22.28
2018-09-17T14:51:58.336Z,22.25
2018-09-17T14:54:25.287Z,22.15
2018-09-17T14:56:52.112Z,22.22
2018-09-17T14:59:19.000Z,22.21
2018-09-17T15:01:46.067Z,22.22
2018-09-17T15:04:12.960Z,22.19
2018-09-17T15:06:39.785Z,22.17
2018-09-17T15:09:07.371Z,22.02
2018-09-17T15:11:34.276Z,21.94
2018-09-17T15:14:01.183Z,21.84
2018-09-17T15:16:28.120Z,21.85
2018-09-17T15:18:54.947Z,22.05
2018-09-17T15:21:21.846Z,21.93
2018-09-17T15:23:48.778Z,21.87
2018-09-17T15:26:15.717Z,21.91
2018-09-17T15:28:42.547Z,21.87
2018-09-17T15:31:09.528Z,21.95
2018-09-17T15:33:36.368Z,21.91
2018-09-17T15:36:03.239Z,21.93
2018-09-17T15:38:30.151Z,21.98
2018-09-17T15:40:57.256Z,21.93
2018-09-17T15:43:24.044Z,21.86
2018-09-17T15:45:50.944Z,21.86
2018-09-17T15:48:17.819Z,21.84
2018-09-17T15:50:44.704Z,21.74
2018-09-17T15:53:11.588Z,21.61
2018-09-17T15:55:38.472Z,21.54
2018-09-17T15:58:05.664Z,21.49
2018-09-17T16:00:32.531Z,21.49
2018-09-17T16:02:59.543Z,21.42
2018-09-17T16:05:26.312Z,21.41
2018-09-17T16:07:53.208Z,21.34
2018-09-17T16:10:20.096Z,21.27
2018-09-17T16:12:46.981Z,21.29
2018-09-17T16:15:13.869Z,21.29
2018-09-17T16:17:40.752Z,21.24
2018-09-17T16:20:07.657Z,21.17
2018-09-17T16:22:34.544Z,21.11
2018-09-17T16:25:01.444Z,21.03
2018-09-17T16:27:28.349Z,20.92
2018-09-17T16:29:55.254Z,20.89
2018-09-17T16:32:22.144Z,20.80
2018-09-17T16:34:49.024Z,20.76
2018-09-17T16:37:15.920Z,20.66
2018-09-17T16:39:42.806Z,20.59
2018-09-17T16:42:09.716Z,20.54
2018-09-17T16:44:36.607Z,20.50
2018-09-17T16:47:03.545Z,20.43
2018-09-17T16:49:30.460Z,20.33
2018-09-17T16:51:57.432Z,20.21
2018-09-17T16:54:24.350Z,20.11
2018-09-17T16:56:51.239Z,20.00
2018-09-17T16:59:18.190Z,19.92
2018-09-17T17:01:45.128Z,19.80
2018-09-17T17:04:12.020Z,19.68
2018-09-17T17:06:38.908Z,19.57
2018-09-17T17:09:07.772Z,19.46
2018-09-17T17:11:34.647Z,19.36
2018-09-17T17:14:01.624Z,19.26
2018-09-17T17:16:28.507Z,19.16
2018-09-17T17:18:55.538Z,19.02
2018-09-17T17:21:22.767Z,18.90
2018-09-17T17:23:49.688Z,18.79
2018-09-17T17:26:16.591Z,18.67
2018-09-17T17:28:43.521Z,18.55
2018-09-17T17:31:10.408Z,18.47
2018-09-17T17:33:37.301Z,18.40
2018-09-17T17:36:04.234Z,18.31
2018-09-17T17:38:31.136Z,18.28
2018-09-17T17:40:58.040Z,18.21
2018-09-17T17:43:24.936Z,18.09
2018-09-17T17:45:51.835Z,18.02
2018-09-17T17:48:18.749Z,17.95
2018-09-17T17:50:45.644Z,17.87
2018-09-17T17:53:12.552Z,17.79
2018-09-17T17:55:39.446Z,17.70
2018-09-17T17:58:06.391Z,17.59
2018-09-17T18:00:33.393Z,17.52
2018-09-17T18:03:00.248Z,17.44
2018-09-17T18:05:27.153Z,17.40
2018-09-17T18:07:54.044Z,17.34
2018-09-17T18:10:20.955Z,17.27
2018-09-17T18:12:47.896Z,17.18
2018-09-17T18:15:14.860Z,17.13
2018-09-17T18:17:41.760Z,17.06
2018-09-17T18:20:08.680Z,17.01
2018-09-17T18:22:35.632Z,16.97
2018-09-17T18:25:04.690Z,16.88
2018-09-17T18:27:31.588Z,16.79
2018-09-17T18:29:58.582Z,16.70
2018-09-17T18:32:25.476Z,16.64
2018-09-17T18:34:52.718Z,16.59
2018-09-17T18:37:19.684Z,16.60
2018-09-17T18:39:46.819Z,16.61
2018-09-17T18:42:13.488Z,16.60
2018-09-17T18:44:40.409Z,16.62
2018-09-17T18:47:07.317Z,16.60
2018-09-17T18:49:34.223Z,16.60
2018-09-17T18:52:01.120Z,16.52
2018-09-17T18:54:28.029Z,16.44
2018-09-17T18:56:54.948Z,16.36
2018-09-17T18:59:21.861Z,16.33
2018-09-17T19:01:48.744Z,16.31
2018-09-17T19:04:15.653Z,16.26
2018-09-17T19:06:42.565Z,16.28
2018-09-17T19:09:09.480Z,16.24
2018-09-17T19:11:36.416Z,16.13
2018-09-17T19:14:09.225Z,16.03
2018-09-17T19:16:41.924Z,15.97
2018-09-17T19:19:08.911Z,15.89
2018-09-17T19:21:41.790Z,15.82
2018-09-17T19:24:08.695Z,15.78
2018-09-17T19:26:35.585Z,15.78
2018-09-17T19:29:08.175Z,15.78
2018-09-17T19:31:35.031Z,15.71
2018-09-17T19:34:01.938Z,15.62
2018-09-17T19:36:28.845Z,15.54
2018-09-17T19:39:59.265Z,15.53
2018-09-17T19:42:26.315Z,15.44
2018-09-17T19:44:58.979Z,15.35
2018-09-17T19:47:25.893Z,15.30
2018-09-17T19:49:52.934Z,15.28
2018-09-17T19:52:22.449Z,15.25
2018-09-17T19:54:49.348Z,15.17
2018-09-17T19:57:21.934Z,15.16
2018-09-17T19:59:53.319Z,15.12
2018-09-17T20:02:20.652Z,15.11
2018-09-17T20:04:53.287Z,15.07
2018-09-17T20:07:20.176Z,15.04
2018-09-17T20:09:47.072Z,15.04
2018-09-17T20:12:13.972Z,15.03
2018-09-17T20:14:40.881Z,15.00
2018-09-17T20:17:07.775Z,15.01
2018-09-17T20:19:34.661Z,14.99
2018-09-17T20:22:01.565Z,14.96
2018-09-17T20:24:28.459Z,14.96
2018-09-17T20:26:55.351Z,14.95
2018-09-17T20:29:22.241Z,14.93
2018-09-17T20:31:49.156Z,14.90
2018-09-17T20:34:16.056Z,14.83
2018-09-17T20:36:42.939Z,14.80
2018-09-17T20:39:09.842Z,14.76
2018-09-17T20:41:36.737Z,14.72
2018-09-17T20:44:03.624Z,14.68
2018-09-17T20:46:30.524Z,14.63
2018-09-17T20:48:57.521Z,14.59
2018-09-17T20:51:24.400Z,14.54
2018-09-17T20:53:51.300Z,14.49
2018-09-17T20:56:18.188Z,14.43
2018-09-17T20:58:45.090Z,14.38
2018-09-17T21:01:12.032Z,14.31
2018-09-17T21:03:38.904Z,14.26
2018-09-17T21:06:05.813Z,14.21
2018-09-17T21:08:32.720Z,14.12
2018-09-17T21:10:59.597Z,14.08
2018-09-17T21:13:26.519Z,14.03
2018-09-17T21:15:53.407Z,14.02
2018-09-17T21:18:20.378Z,13.97
2018-09-17T21:20:47.285Z,13.92
2018-09-17T21:23:14.185Z,13.90
2018-09-17T21:25:41.057Z,13.86
2018-09-17T21:28:08.013Z,13.83
2018-09-17T21:30:34.845Z,13.79
2018-09-17T21:33:01.744Z,13.79
2018-09-17T21:35:28.636Z,13.77
2018-09-17T21:37:55.519Z,13.75
2018-09-17T21:40:22.417Z,13.76
2018-09-17T21:42:49.333Z,13.78
2018-09-17T21:45:16.212Z,13.77
2018-09-17T21:47:43.290Z,13.77
2018-09-17T21:50:10.338Z,13.71
2018-09-17T21:52:37.283Z,13.70
2018-09-17T21:55:04.443Z,13.70
2018-09-17T21:57:31.451Z,13.71
2018-09-17T21:59:58.348Z,13.70
2018-09-17T22:02:25.327Z,13.67
2018-09-17T22:04:52.175Z,13.63
2018-09-17T22:07:19.076Z,13.62
2018-09-17T22:09:45.968Z,13.59
2018-09-17T22:12:12.868Z,13.54
2018-09-17T22:14:39.748Z,13.51
2018-09-17T22:17:06.684Z,13.48
2018-09-17T22:19:33.613Z,13.48
2018-09-17T22:22:00.512Z,13.46
2018-09-17T22:24:27.416Z,13.46
2018-09-17T22:26:54.304Z,13.45
2018-09-17T22:29:21.191Z,13.41
2018-09-17T22:31:48.092Z,13.34
2018-09-17T22:34:14.983Z,13.30
2018-09-17T22:36:41.877Z,13.25
2018-09-17T22:39:09.688Z,13.21
2018-09-17T22:41:36.909Z,13.15
2018-09-17T22:44:03.900Z,13.11
2018-09-17T22:46:30.809Z,13.07
2018-09-17T22:48:57.703Z,13.02
2018-09-17T22:51:24.601Z,12.98
2018-09-17T22:53:51.494Z,12.92
2018-09-17T22:56:18.388Z,12.91
2018-09-17T22:58:45.280Z,12.86
2018-09-17T23:01:12.177Z,12.83
2018-09-17T23:03:39.073Z,12.82
2018-09-17T23:06:05.998Z,12.74
2018-09-17T23:08:32.905Z,12.74
2018-09-17T23:10:59.826Z,12.70
2018-09-17T23:13:26.752Z,12.65
2018-09-17T23:15:53.643Z,12.61
2018-09-17T23:18:20.536Z,12.60
2018-09-17T23:20:47.411Z,12.60
2018-09-17T23:23:14.325Z,12.57
2018-09-17T23:25:41.212Z,12.58
2018-09-17T23:28:14.916Z,12.59
2018-09-17T23:30:41.816Z,12.60
2018-09-17T23:33:08.740Z,12.60
2018-09-17T23:35:35.633Z,12.58
2018-09-17T23:38:02.533Z,12.56
2018-09-17T23:40:29.434Z,12.56
2018-09-17T23:42:56.359Z,12.52
2018-09-17T23:45:23.268Z,12.48
2018-09-17T23:47:50.151Z,12.42
2018-09-17T23:50:17.052Z,12.36
2018-09-17T23:52:43.939Z,12.30
2018-09-17T23:55:10.841Z,12.22
2018-09-17T23:57:37.736Z,12.19
